createdAt,value
2017-10-17T00:00:38.488Z,8.69
2017-10-17T00:01:38.414Z,8.68
2017-10-17T00:02:38.386Z,8.69
2017-10-17T00:03:38.332Z,8.78
2017-10-17T00:04:38.309Z,8.96
2017-10-17T00:05:38.259Z,8.79
2017-10-17T00:06:38.220Z,8.73
2017-10-17T00:07:38.179Z,8.78
2017-10-17T00:08:38.176Z,8.60
2017-10-17T00:09:38.098Z,8.68
2017-10-17T00:10:38.064Z,8.75
2017-10-17T00:11:38.015Z,9.04
2017-10-17T00:12:37.980Z,9.04
2017-10-17T00:13:37.936Z,8.91
2017-10-17T00:14:37.898Z,9.01
2017-10-17T00:15:37.881Z,8.84
2017-10-17T00:16:37.815Z,8.90
2017-10-17T00:17:37.778Z,8.81
2017-10-17T00:18:37.738Z,8.76
2017-10-17T00:19:37.708Z,8.78
2017-10-17T00:20:37.651Z,8.73
2017-10-17T00:21:37.665Z,8.72
2017-10-17T00:22:37.583Z,8.72
2017-10-17T00:23:37.543Z,8.65
2017-10-17T00:24:37.491Z,8.72
2017-10-17T00:25:37.462Z,8.65
2017-10-17T00:26:37.446Z,8.69
2017-10-17T00:27:37.413Z,8.66
2017-10-17T00:28:37.359Z,8.78
2017-10-17T00:29:37.300Z,8.99
2017-10-17T00:30:37.288Z,9.04
2017-10-17T00:31:37.240Z,8.90
2017-10-17T00:32:37.214Z,8.86
2017-10-17T00:33:37.159Z,8.75
2017-10-17T00:34:37.121Z,8.68
2017-10-17T00:35:37.900Z,8.66
2017-10-17T00:36:37.005Z,8.68
2017-10-17T00:37:36.969Z,8.66
2017-10-17T00:38:36.935Z,8.60
2017-10-17T00:39:36.883Z,8.60
2017-10-17T00:40:36.849Z,8.55
2017-10-17T00:41:36.812Z,8.68
2017-10-17T00:42:36.769Z,8.48
2017-10-17T00:43:36.731Z,8.51
2017-10-17T00:44:36.713Z,8.62
2017-10-17T00:45:36.686Z,8.62
2017-10-17T00:46:36.618Z,8.48
2017-10-17T00:47:36.561Z,8.45
2017-10-17T00:48:36.520Z,8.71
2017-10-17T00:49:36.501Z,8.58
2017-10-17T00:50:36.461Z,8.65
2017-10-17T00:51:36.402Z,8.55
2017-10-17T00:52:36.355Z,8.76
2017-10-17T00:53:36.322Z,8.84
2017-10-17T00:54:36.420Z,8.86
2017-10-17T00:55:36.232Z,8.73
2017-10-17T00:56:36.191Z,8.73
2017-10-17T00:57:36.152Z,8.65
2017-10-17T00:58:36.177Z,8.57
2017-10-17T00:59:36.072Z,8.47
2017-10-17T01:00:36.122Z,8.54
2017-10-17T01:01:36.018Z,8.47
2017-10-17T01:02:35.959Z,8.48
2017-10-17T01:03:35.908Z,8.36
2017-10-17T01:04:35.873Z,8.48
2017-10-17T01:05:35.840Z,8.47
2017-10-17T01:06:35.795Z,8.45
2017-10-17T01:07:35.757Z,8.47
2017-10-17T01:08:35.707Z,8.39
2017-10-17T01:09:35.659Z,8.40
2017-10-17T01:10:35.625Z,8.32
2017-10-17T01:11:35.586Z,8.32
2017-10-17T01:12:35.553Z,8.55
2017-10-17T01:13:35.510Z,8.53
2017-10-17T01:14:35.472Z,8.47
2017-10-17T01:15:35.424Z,8.42
2017-10-17T01:16:35.386Z,8.33
2017-10-17T01:17:35.346Z,8.47
2017-10-17T01:18:35.304Z,8.50
2017-10-17T01:19:35.268Z,8.51
2017-10-17T01:20:35.220Z,8.50
2017-10-17T01:21:35.176Z,8.45
2017-10-17T01:22:35.135Z,8.36
2017-10-17T01:23:35.106Z,8.29
2017-10-17T01:24:35.048Z,8.33
2017-10-17T01:25:35.014Z,8.26
2017-10-17T01:26:34.977Z,8.36
2017-10-17T01:27:34.929Z,8.54
2017-10-17T01:28:34.897Z,8.40
2017-10-17T01:29:34.860Z,8.36
2017-10-17T01:30:34.836Z,8.53
2017-10-17T01:31:34.777Z,8.35
2017-10-17T01:32:34.737Z,8.36
2017-10-17T01:33:34.687Z,8.57
2017-10-17T01:34:34.653Z,8.47
2017-10-17T01:35:34.617Z,8.36
2017-10-17T01:36:34.570Z,8.33
2017-10-17T01:37:34.528Z,8.29
2017-10-17T01:38:34.516Z,8.39
2017-10-17T01:39:34.463Z,8.39
2017-10-17T01:40:34.429Z,8.39
2017-10-17T01:41:34.365Z,8.33
2017-10-17T01:42:34.353Z,8.30
2017-10-17T01:43:34.296Z,8.35
2017-10-17T01:44:34.251Z,8.42
2017-10-17T01:45:34.196Z,8.37
2017-10-17T01:46:34.161Z,8.25
2017-10-17T01:47:34.110Z,8.29
2017-10-17T01:48:34.078Z,8.21
2017-10-17T01:49:34.037Z,8.20
2017-10-17T01:50:33.996Z,8.12
2017-10-17T01:51:33.959Z,8.17
2017-10-17T01:52:33.912Z,8.20
2017-10-17T01:53:33.892Z,8.12
2017-10-17T01:54:33.900Z,8.25
2017-10-17T01:55:33.801Z,8.22
2017-10-17T01:56:33.756Z,8.12
2017-10-17T01:57:33.709Z,8.14
2017-10-17T01:58:33.702Z,8.02
2017-10-17T01:59:33.627Z,7.97
2017-10-17T02:00:33.582Z,8.02
2017-10-17T02:01:33.561Z,8.00
2017-10-17T02:02:33.524Z,8.02
2017-10-17T02:03:33.464Z,7.96
2017-10-17T02:04:33.429Z,8.03
2017-10-17T02:05:33.379Z,8.03
2017-10-17T02:06:33.412Z,8.03
2017-10-17T02:07:33.294Z,8.11
2017-10-17T02:08:33.266Z,8.00
2017-10-17T02:09:33.220Z,7.93
2017-10-17T02:10:33.188Z,7.97
2017-10-17T02:11:33.192Z,7.97
2017-10-17T02:12:33.118Z,7.97
2017-10-17T02:13:33.054Z,8.08
2017-10-17T02:14:33.015Z,7.99
2017-10-17T02:15:33.000Z,8.00
2017-10-17T02:16:32.955Z,8.02
2017-10-17T02:17:32.893Z,7.94
2017-10-17T02:18:33.416Z,7.92
2017-10-17T02:19:32.838Z,7.85
2017-10-17T02:20:32.806Z,7.94
2017-10-17T02:21:32.762Z,7.93
2017-10-17T02:22:32.682Z,7.87
2017-10-17T02:23:32.711Z,7.99
2017-10-17T02:24:32.623Z,8.03
2017-10-17T02:25:32.569Z,8.03
2017-10-17T02:26:32.523Z,7.97
2017-10-17T02:27:32.525Z,7.99
2017-10-17T02:28:32.439Z,7.99
2017-10-17T02:29:32.398Z,7.96
2017-10-17T02:30:32.430Z,8.00
2017-10-17T02:31:32.311Z,8.14
2017-10-17T02:32:32.266Z,8.02
2017-10-17T02:33:32.230Z,7.97
2017-10-17T02:34:32.188Z,8.04
2017-10-17T02:35:32.175Z,8.08
2017-10-17T02:36:32.113Z,8.02
2017-10-17T02:37:32.069Z,7.97
2017-10-17T02:38:32.024Z,8.00
2017-10-17T02:39:31.989Z,8.00
2017-10-17T02:40:31.951Z,7.99
2017-10-17T02:41:31.908Z,7.97
2017-10-17T02:42:31.871Z,7.92
2017-10-17T02:43:31.820Z,7.81
2017-10-17T02:44:31.787Z,7.74
2017-10-17T02:45:31.796Z,7.78
2017-10-17T02:46:31.704Z,7.75
2017-10-17T02:47:31.657Z,7.69
2017-10-17T02:48:31.631Z,7.69
2017-10-17T02:49:31.574Z,7.58
2017-10-17T02:50:31.541Z,7.62
2017-10-17T02:51:31.483Z,7.67
2017-10-17T02:52:31.459Z,7.59
2017-10-17T02:53:31.404Z,7.59
2017-10-17T02:54:31.392Z,7.55
2017-10-17T02:55:31.332Z,7.47
2017-10-17T02:56:31.306Z,7.56
2017-10-17T02:57:31.295Z,7.53
2017-10-17T02:58:31.220Z,7.85
2017-10-17T02:59:31.181Z,7.81
2017-10-17T03:00:31.131Z,7.82
2017-10-17T03:01:31.102Z,7.84
2017-10-17T03:02:31.065Z,7.84
2017-10-17T03:03:31.023Z,7.78
2017-10-17T03:04:31.039Z,7.75
2017-10-17T03:05:30.922Z,7.67
2017-10-17T03:06:30.886Z,7.87
2017-10-17T03:07:30.842Z,7.81
2017-10-17T03:08:30.796Z,7.81
2017-10-17T03:09:30.753Z,7.85
2017-10-17T03:10:30.706Z,8.02
2017-10-17T03:11:30.691Z,8.15
2017-10-17T03:12:30.622Z,8.14
2017-10-17T03:13:30.592Z,7.99
2017-10-17T03:14:30.575Z,8.12
2017-10-17T03:15:30.506Z,8.07
2017-10-17T03:16:30.470Z,8.00
2017-10-17T03:17:30.421Z,7.94
2017-10-17T03:18:30.387Z,7.99
2017-10-17T03:19:30.341Z,8.02
2017-10-17T03:20:30.298Z,8.03
2017-10-17T03:21:30.270Z,8.00
2017-10-17T03:22:30.238Z,8.10
2017-10-17T03:23:30.207Z,8.00
2017-10-17T03:24:30.135Z,7.97
2017-10-17T03:25:30.089Z,7.97
2017-10-17T03:26:30.099Z,8.02
2017-10-17T03:27:30.100Z,7.75
2017-10-17T03:28:29.972Z,7.77
2017-10-17T03:29:29.969Z,7.74
2017-10-17T03:30:29.886Z,7.72
2017-10-17T03:31:29.861Z,7.63
2017-10-17T03:32:29.820Z,7.66
2017-10-17T03:33:29.820Z,7.66
2017-10-17T03:34:29.719Z,7.49
2017-10-17T03:35:29.684Z,7.53
2017-10-17T03:36:29.650Z,7.55
2017-10-17T03:37:29.604Z,7.47
2017-10-17T03:38:29.549Z,7.50
2017-10-17T03:39:29.517Z,7.40
2017-10-17T03:40:29.467Z,7.53
2017-10-17T03:41:29.444Z,7.55
2017-10-17T03:42:29.384Z,7.55
2017-10-17T03:43:29.353Z,7.59
2017-10-17T03:44:29.324Z,7.49
2017-10-17T03:45:29.270Z,7.47
2017-10-17T03:46:29.930Z,7.87
2017-10-17T03:47:29.181Z,8.04
2017-10-17T03:48:29.176Z,7.90
2017-10-17T03:49:29.096Z,7.97
2017-10-17T03:50:29.065Z,7.96
2017-10-17T03:51:29.031Z,7.79
2017-10-17T03:52:29.036Z,7.85
2017-10-17T03:53:28.966Z,7.77
2017-10-17T03:54:28.920Z,7.75
2017-10-17T03:55:28.877Z,7.72
2017-10-17T03:56:28.847Z,7.62
2017-10-17T03:57:28.771Z,7.49
2017-10-17T03:58:28.765Z,7.60
2017-10-17T03:59:28.703Z,7.47
2017-10-17T04:00:28.656Z,7.42
2017-10-17T04:01:28.633Z,7.63
2017-10-17T04:02:28.575Z,7.50
2017-10-17T04:03:28.574Z,7.47
2017-10-17T04:04:28.499Z,7.42
2017-10-17T04:05:28.511Z,7.47
2017-10-17T04:06:28.410Z,7.35
2017-10-17T04:07:28.401Z,7.44
2017-10-17T04:08:28.324Z,7.40
2017-10-17T04:09:28.295Z,7.42
2017-10-17T04:10:28.240Z,7.44
2017-10-17T04:11:28.240Z,7.66
2017-10-17T04:12:28.160Z,7.67
2017-10-17T04:13:28.116Z,7.66
2017-10-17T04:14:28.095Z,7.47
2017-10-17T04:15:28.020Z,7.53
2017-10-17T04:16:28.001Z,7.60
2017-10-17T04:17:27.945Z,7.72
2017-10-17T04:18:27.897Z,7.82
2017-10-17T04:19:27.865Z,7.81
2017-10-17T04:20:27.831Z,7.75
2017-10-17T04:21:27.772Z,7.77
2017-10-17T04:22:27.834Z,7.82
2017-10-17T04:23:27.708Z,7.69
2017-10-17T04:24:27.663Z,7.60
2017-10-17T04:25:27.613Z,7.58
2017-10-17T04:26:27.577Z,7.62
2017-10-17T04:27:27.520Z,7.55
2017-10-17T04:28:27.489Z,7.59
2017-10-17T04:29:27.442Z,7.49
2017-10-17T04:30:27.421Z,7.72
2017-10-17T04:31:27.462Z,7.56
2017-10-17T04:32:27.330Z,7.62
2017-10-17T04:33:27.295Z,7.50
2017-10-17T04:34:27.246Z,7.58
2017-10-17T04:35:27.231Z,7.52
2017-10-17T04:36:27.167Z,7.50
2017-10-17T04:37:27.216Z,7.45
2017-10-17T04:38:27.099Z,7.55
2017-10-17T04:39:27.062Z,7.49
2017-10-17T04:40:27.005Z,7.41
2017-10-17T04:41:26.952Z,7.41
2017-10-17T04:42:26.906Z,7.42
2017-10-17T04:43:26.865Z,7.29
2017-10-17T04:44:26.809Z,7.50
2017-10-17T04:45:26.802Z,7.62
2017-10-17T04:46:26.739Z,7.45
2017-10-17T04:47:26.693Z,7.72
2017-10-17T04:48:26.662Z,7.89
2017-10-17T04:49:26.606Z,7.74
2017-10-17T04:50:26.586Z,7.63
2017-10-17T04:51:26.533Z,7.66
2017-10-17T04:52:26.502Z,7.82
2017-10-17T04:53:26.451Z,7.71
2017-10-17T04:54:26.400Z,7.62
2017-10-17T04:55:26.387Z,7.60
2017-10-17T04:56:26.306Z,7.58
2017-10-17T04:57:26.288Z,7.60
2017-10-17T04:58:26.257Z,7.60
2017-10-17T04:59:26.260Z,7.77
2017-10-17T05:00:26.153Z,7.58
2017-10-17T05:01:26.110Z,7.58
2017-10-17T05:02:26.078Z,7.72
2017-10-17T05:03:26.031Z,7.62
2017-10-17T05:04:26.018Z,7.72
2017-10-17T05:05:25.945Z,7.72
2017-10-17T05:06:25.918Z,7.75
2017-10-17T05:07:25.862Z,7.75
2017-10-17T05:08:25.819Z,7.63
2017-10-17T05:09:25.775Z,7.72
2017-10-17T05:10:25.739Z,7.60
2017-10-17T05:11:25.693Z,7.60
2017-10-17T05:12:25.671Z,7.59
2017-10-17T05:13:25.612Z,7.50
2017-10-17T05:14:25.619Z,7.56
2017-10-17T05:15:25.523Z,7.40
2017-10-17T05:16:25.483Z,7.44
2017-10-17T05:17:25.453Z,7.49
2017-10-17T05:18:25.418Z,7.52
2017-10-17T05:19:25.428Z,7.40
2017-10-17T05:20:25.376Z,7.40
2017-10-17T05:21:25.287Z,7.34
2017-10-17T05:22:25.241Z,7.29
2017-10-17T05:23:25.202Z,7.40
2017-10-17T05:24:25.162Z,7.35
2017-10-17T05:25:25.110Z,7.32
2017-10-17T05:26:25.072Z,7.34
2017-10-17T05:27:25.037Z,7.35
2017-10-17T05:28:25.000Z,7.29
2017-10-17T05:29:24.952Z,7.24
2017-10-17T05:30:24.905Z,7.20
2017-10-17T05:31:24.873Z,7.20
2017-10-17T05:32:24.820Z,7.15
2017-10-17T05:33:24.792Z,7.23
2017-10-17T05:34:24.748Z,7.24
2017-10-17T05:35:24.726Z,7.17
2017-10-17T05:36:24.713Z,7.17
2017-10-17T05:37:24.616Z,7.42
2017-10-17T05:38:24.591Z,7.34
2017-10-17T05:39:24.533Z,7.41
2017-10-17T05:40:24.499Z,7.49
2017-10-17T05:41:24.483Z,7.47
2017-10-17T05:42:24.405Z,7.41
2017-10-17T05:43:24.430Z,7.31
2017-10-17T05:44:24.360Z,7.22
2017-10-17T05:45:24.307Z,7.23
2017-10-17T05:46:24.232Z,7.16
2017-10-17T05:47:24.226Z,7.19
2017-10-17T05:48:24.153Z,7.26
2017-10-17T05:49:24.103Z,7.35
2017-10-17T05:50:24.069Z,7.53
2017-10-17T05:51:24.045Z,7.60
2017-10-17T05:52:23.991Z,7.50
2017-10-17T05:53:23.965Z,7.49
2017-10-17T05:54:23.902Z,7.41
2017-10-17T05:55:23.863Z,7.49
2017-10-17T05:56:23.841Z,7.34
2017-10-17T05:57:23.799Z,7.44
2017-10-17T05:58:23.735Z,7.35
2017-10-17T05:59:23.714Z,7.29
2017-10-17T06:00:23.654Z,7.34
2017-10-17T06:01:23.612Z,7.34
2017-10-17T06:02:23.579Z,7.31
2017-10-17T06:03:23.536Z,7.23
2017-10-17T06:04:23.477Z,7.31
2017-10-17T06:05:23.468Z,7.49
2017-10-17T06:06:23.462Z,7.85
2017-10-17T06:07:23.366Z,8.00
2017-10-17T06:08:23.357Z,7.92
2017-10-17T06:09:23.301Z,7.92
2017-10-17T06:10:23.265Z,7.99
2017-10-17T06:11:23.238Z,7.97
2017-10-17T06:12:23.159Z,7.97
2017-10-17T06:13:23.182Z,7.82
2017-10-17T06:14:23.093Z,7.74
2017-10-17T06:15:23.053Z,7.60
2017-10-17T06:16:22.988Z,7.59
2017-10-17T06:17:22.988Z,7.58
2017-10-17T06:18:22.925Z,7.56
2017-10-17T06:19:22.872Z,7.69
2017-10-17T06:20:22.836Z,7.58
2017-10-17T06:21:22.788Z,7.59
2017-10-17T06:22:22.735Z,7.59
2017-10-17T06:23:22.694Z,7.81
2017-10-17T06:24:22.650Z,7.97
2017-10-17T06:25:22.633Z,8.02
2017-10-17T06:26:22.583Z,8.08
2017-10-17T06:27:22.560Z,8.00
2017-10-17T06:28:22.515Z,7.99
2017-10-17T06:29:22.486Z,8.21
2017-10-17T06:30:22.443Z,8.00
2017-10-17T06:31:22.398Z,8.18
2017-10-17T06:32:22.354Z,8.00
2017-10-17T06:33:22.296Z,7.97
2017-10-17T06:34:22.244Z,8.36
2017-10-17T06:35:22.227Z,8.48
2017-10-17T06:36:22.166Z,8.53
2017-10-17T06:37:22.123Z,8.45
2017-10-17T06:38:22.095Z,8.30
2017-10-17T06:39:22.046Z,8.51
2017-10-17T06:40:22.008Z,8.51
2017-10-17T06:41:21.973Z,8.58
2017-10-17T06:42:21.933Z,8.65
2017-10-17T06:43:21.874Z,8.60
2017-10-17T06:44:21.849Z,8.50
2017-10-17T06:45:21.795Z,8.48
2017-10-17T06:46:21.761Z,8.35
2017-10-17T06:47:21.722Z,8.66
2017-10-17T06:48:21.673Z,8.84
2017-10-17T06:49:21.656Z,8.81
2017-10-17T06:50:21.593Z,8.78
2017-10-17T06:51:21.572Z,8.84
2017-10-17T06:52:21.516Z,8.81
2017-10-17T06:53:21.485Z,8.94
2017-10-17T06:54:21.433Z,9.04
2017-10-17T06:55:21.408Z,9.20
2017-10-17T06:56:21.367Z,9.40
2017-10-17T06:57:21.319Z,9.48
2017-10-17T06:58:21.260Z,9.73
2017-10-17T06:59:21.237Z,10.28
2017-10-17T07:00:21.197Z,10.39
2017-10-17T07:01:21.151Z,10.42
2017-10-17T07:02:21.110Z,10.55
2017-10-17T07:03:21.062Z,10.80
2017-10-17T07:04:21.023Z,11.07
2017-10-17T07:05:20.988Z,11.44
2017-10-17T07:06:21.007Z,11.50
2017-10-17T07:07:20.918Z,11.85
2017-10-17T07:08:20.881Z,12.21
2017-10-17T07:09:20.845Z,12.42
2017-10-17T07:10:20.808Z,12.26
2017-10-17T07:11:20.756Z,12.44
2017-10-17T07:12:20.754Z,12.46
2017-10-17T07:13:20.724Z,12.60
2017-10-17T07:14:20.654Z,12.82
2017-10-17T07:15:20.638Z,13.07
2017-10-17T07:16:20.595Z,13.24
2017-10-17T07:17:20.549Z,13.61
2017-10-17T07:18:20.517Z,14.09
2017-10-17T07:19:20.478Z,14.09
2017-10-17T07:20:20.451Z,13.99
2017-10-17T07:21:20.426Z,14.04
2017-10-17T07:22:20.392Z,14.32
2017-10-17T07:23:20.359Z,14.56
2017-10-17T07:24:20.319Z,14.86
2017-10-17T07:25:20.288Z,15.12
2017-10-17T07:26:20.242Z,15.11
2017-10-17T07:27:20.215Z,15.03
2017-10-17T07:28:20.198Z,15.12
2017-10-17T07:29:20.169Z,15.38
2017-10-17T07:30:20.120Z,15.20
2017-10-17T07:31:20.089Z,14.81
2017-10-17T07:32:20.081Z,14.57
2017-10-17T07:33:20.036Z,14.34
2017-10-17T07:34:19.990Z,14.25
2017-10-17T07:35:19.964Z,14.28
2017-10-17T07:36:19.918Z,14.46
2017-10-17T07:37:19.878Z,14.54
2017-10-17T07:38:19.864Z,14.83
2017-10-17T07:39:19.826Z,14.57
2017-10-17T07:40:19.820Z,14.52
2017-10-17T07:41:19.761Z,14.31
2017-10-17T07:42:19.721Z,14.52
2017-10-17T07:43:19.699Z,14.60
2017-10-17T07:44:19.672Z,14.84
2017-10-17T07:45:19.622Z,15.19
2017-10-17T07:46:19.626Z,15.54
2017-10-17T07:47:19.571Z,15.93
2017-10-17T07:48:19.541Z,16.37
2017-10-17T07:49:19.500Z,16.34
2017-10-17T07:50:19.469Z,16.34
2017-10-17T07:51:19.454Z,16.31
2017-10-17T07:52:19.408Z,16.30
2017-10-17T07:53:19.397Z,16.04
2017-10-17T07:54:19.404Z,15.72
2017-10-17T07:55:19.310Z,15.45
2017-10-17T07:56:19.293Z,15.12
2017-10-17T07:57:19.238Z,14.99
2017-10-17T07:58:19.196Z,14.91
2017-10-17T07:59:19.191Z,14.80
2017-10-17T08:00:19.137Z,14.72
2017-10-17T08:01:19.119Z,14.62
2017-10-17T08:02:19.087Z,14.60
2017-10-17T08:03:19.049Z,14.74
2017-10-17T08:04:19.015Z,14.90
2017-10-17T08:05:18.974Z,14.88
2017-10-17T08:06:18.955Z,15.01
2017-10-17T08:07:19.474Z,15.01
2017-10-17T08:08:18.874Z,15.12
2017-10-17T08:09:18.847Z,14.94
2017-10-17T08:10:18.801Z,15.01
2017-10-17T08:11:18.786Z,15.05
2017-10-17T08:12:18.749Z,15.02
2017-10-17T08:13:18.693Z,15.20
2017-10-17T08:14:18.687Z,15.19
2017-10-17T08:15:18.638Z,15.31
2017-10-17T08:16:18.595Z,15.48
2017-10-17T08:17:18.573Z,15.66
2017-10-17T08:18:18.532Z,15.79
2017-10-17T08:19:18.509Z,15.89
2017-10-17T08:20:18.494Z,16.20
2017-10-17T08:21:18.450Z,16.06
2017-10-17T08:22:18.415Z,16.31
2017-10-17T08:23:18.367Z,16.49
2017-10-17T08:24:18.357Z,16.65
2017-10-17T08:25:18.315Z,16.63
2017-10-17T08:26:18.294Z,16.77
2017-10-17T08:27:18.240Z,16.88
2017-10-17T08:28:18.212Z,16.99
2017-10-17T08:29:18.199Z,17.17
2017-10-17T08:30:18.151Z,17.33
2017-10-17T08:31:18.133Z,17.46
2017-10-17T08:32:18.100Z,17.76
2017-10-17T08:33:18.066Z,18.24
2017-10-17T08:34:18.032Z,18.64
2017-10-17T08:35:18.013Z,18.97
2017-10-17T08:36:17.964Z,18.84
2017-10-17T08:37:17.946Z,19.20
2017-10-17T08:38:17.929Z,19.13
2017-10-17T08:39:17.890Z,19.31
2017-10-17T08:40:17.849Z,18.94
2017-10-17T08:41:17.826Z,18.73
2017-10-17T08:42:17.783Z,18.68
2017-10-17T08:43:17.766Z,18.76
2017-10-17T08:44:17.749Z,18.42
2017-10-17T08:45:17.717Z,18.72
2017-10-17T08:46:17.693Z,18.61
2017-10-17T08:47:17.651Z,18.68
2017-10-17T08:48:17.609Z,18.83
2017-10-17T08:49:17.603Z,19.13
2017-10-17T08:50:17.560Z,19.24
2017-10-17T08:51:17.537Z,19.17
2017-10-17T08:52:17.494Z,19.08
2017-10-17T08:53:17.489Z,18.91
2017-10-17T08:54:17.434Z,18.80
2017-10-17T08:55:17.402Z,18.67
2017-10-17T08:56:17.377Z,18.80
2017-10-17T08:57:17.347Z,19.10
2017-10-17T08:58:17.319Z,19.18
2017-10-17T08:59:17.278Z,19.42
2017-10-17T09:00:17.259Z,19.66
2017-10-17T09:01:17.254Z,19.83
2017-10-17T09:02:17.199Z,19.84
2017-10-17T09:03:17.179Z,20.18
2017-10-17T09:04:17.149Z,20.56
2017-10-17T09:05:17.154Z,20.71
2017-10-17T09:06:17.109Z,20.87
2017-10-17T09:07:17.075Z,21.17
2017-10-17T09:08:17.043Z,21.67
2017-10-17T09:09:17.049Z,21.29
2017-10-17T09:10:16.985Z,21.59
2017-10-17T09:11:16.989Z,22.10
2017-10-17T09:12:16.961Z,22.49
2017-10-17T09:13:16.915Z,23.38
2017-10-17T09:14:16.915Z,23.11
2017-10-17T09:15:16.874Z,23.50
2017-10-17T09:16:16.844Z,23.35
2017-10-17T09:17:16.832Z,23.72
2017-10-17T09:18:16.800Z,23.65
2017-10-17T09:19:16.775Z,23.87
2017-10-17T09:20:16.749Z,24.05
2017-10-17T09:21:16.709Z,24.17
2017-10-17T09:22:16.701Z,24.07
2017-10-17T09:23:16.687Z,24.60
2017-10-17T09:24:16.644Z,24.85
2017-10-17T09:25:16.637Z,24.53
2017-10-17T09:26:16.614Z,24.42
2017-10-17T09:27:16.587Z,24.57
2017-10-17T09:28:16.562Z,25.19
2017-10-17T09:29:16.594Z,25.31
2017-10-17T09:30:16.531Z,25.62
2017-10-17T09:31:16.519Z,25.27
2017-10-17T09:32:16.495Z,24.61
2017-10-17T09:33:16.458Z,24.73
2017-10-17T09:34:16.446Z,25.59
2017-10-17T09:35:16.410Z,25.32
2017-10-17T09:36:16.407Z,25.22
2017-10-17T09:37:16.371Z,25.54
2017-10-17T09:38:16.362Z,25.62
2017-10-17T09:39:16.336Z,25.59
2017-10-17T09:40:16.313Z,26.04
2017-10-17T09:41:16.304Z,26.57
2017-10-17T09:42:16.282Z,26.47
2017-10-17T09:43:16.262Z,26.06
2017-10-17T09:44:16.229Z,25.69
2017-10-17T09:45:16.240Z,25.67
2017-10-17T09:46:16.211Z,26.28
2017-10-17T09:47:16.172Z,26.64
2017-10-17T09:48:16.178Z,26.44
2017-10-17T09:49:16.143Z,26.06
2017-10-17T09:50:16.130Z,26.17
2017-10-17T09:51:16.111Z,26.69
2017-10-17T09:52:16.078Z,26.25
2017-10-17T09:53:16.068Z,26.44
2017-10-17T09:54:16.048Z,25.83
2017-10-17T09:55:16.041Z,25.86
2017-10-17T09:56:16.000Z,26.52
2017-10-17T09:57:15.987Z,26.29
2017-10-17T09:58:15.981Z,26.02
2017-10-17T09:59:15.963Z,26.37
2017-10-17T10:00:15.922Z,26.44
2017-10-17T10:01:15.934Z,26.29
2017-10-17T10:02:15.899Z,26.57
2017-10-17T10:03:15.910Z,26.47
2017-10-17T10:04:15.868Z,26.39
2017-10-17T10:05:15.820Z,26.24
2017-10-17T10:06:15.814Z,26.68
2017-10-17T10:07:15.818Z,26.89
2017-10-17T10:08:15.783Z,27.01
2017-10-17T10:09:15.777Z,27.42
2017-10-17T10:10:15.743Z,26.94
2017-10-17T10:11:15.723Z,26.69
2017-10-17T10:12:15.726Z,26.36
2017-10-17T10:13:15.700Z,26.35
2017-10-17T10:14:15.664Z,26.74
2017-10-17T10:15:15.649Z,26.64
2017-10-17T10:16:15.634Z,26.24
2017-10-17T10:17:15.624Z,26.36
2017-10-17T10:18:15.607Z,27.05
2017-10-17T10:19:15.579Z,26.86
2017-10-17T10:20:15.568Z,26.65
2017-10-17T10:21:15.540Z,26.98
2017-10-17T10:22:15.524Z,26.86
2017-10-17T10:23:15.481Z,27.04
2017-10-17T10:24:15.487Z,27.11
2017-10-17T10:25:15.461Z,27.05
2017-10-17T10:26:15.444Z,27.35
2017-10-17T10:27:15.422Z,27.31
2017-10-17T10:28:15.402Z,27.21
2017-10-17T10:29:15.388Z,27.10
2017-10-17T10:30:15.369Z,26.83
2017-10-17T10:31:15.356Z,26.80
2017-10-17T10:32:15.357Z,26.89
2017-10-17T10:33:15.330Z,26.89
2017-10-17T10:34:15.322Z,26.91
2017-10-17T10:35:15.290Z,26.74
2017-10-17T10:36:15.266Z,26.68
2017-10-17T10:37:15.251Z,26.74
2017-10-17T10:38:15.249Z,26.84
2017-10-17T10:39:15.233Z,26.64
2017-10-17T10:40:15.204Z,26.68
2017-10-17T10:41:15.175Z,26.58
2017-10-17T10:42:15.157Z,26.54
2017-10-17T10:43:15.147Z,26.42
2017-10-17T10:44:15.106Z,26.42
2017-10-17T10:45:15.112Z,26.72
2017-10-17T10:46:15.075Z,26.95
2017-10-17T10:47:15.055Z,26.83
2017-10-17T10:48:15.037Z,26.91
2017-10-17T10:49:15.020Z,26.77
2017-10-17T10:50:15.005Z,26.73
2017-10-17T10:51:14.983Z,26.84
2017-10-17T10:52:14.977Z,26.87
2017-10-17T10:53:14.950Z,26.74
2017-10-17T10:54:14.948Z,26.39
2017-10-17T10:55:14.905Z,26.27
2017-10-17T10:56:14.893Z,26.21
2017-10-17T10:57:14.884Z,26.11
2017-10-17T10:58:14.872Z,26.27
2017-10-17T10:59:14.831Z,26.49
2017-10-17T11:00:14.813Z,26.50
2017-10-17T11:01:14.821Z,26.42
2017-10-17T11:02:14.831Z,26.73
2017-10-17T11:03:14.791Z,27.04
2017-10-17T11:04:14.738Z,26.89
2017-10-17T11:05:14.724Z,26.44
2017-10-17T11:06:14.751Z,26.47
2017-10-17T11:07:14.701Z,26.28
2017-10-17T11:08:14.667Z,26.39
2017-10-17T11:09:14.676Z,27.14
2017-10-17T11:10:14.646Z,27.02
2017-10-17T11:11:14.618Z,26.74
2017-10-17T11:12:14.606Z,26.44
2017-10-17T11:13:14.597Z,26.43
2017-10-17T11:14:14.592Z,26.58
2017-10-17T11:15:14.556Z,27.11
2017-10-17T11:16:14.526Z,26.83
2017-10-17T11:17:14.498Z,26.77
2017-10-17T11:18:14.488Z,26.67
2017-10-17T11:19:14.481Z,26.55
2017-10-17T11:20:14.497Z,26.58
2017-10-17T11:21:14.446Z,26.52
2017-10-17T11:22:14.422Z,26.29
2017-10-17T11:23:14.403Z,26.17
2017-10-17T11:24:14.388Z,25.69
2017-10-17T11:25:14.363Z,25.86
2017-10-17T11:26:14.334Z,26.02
2017-10-17T11:27:14.309Z,26.12
2017-10-17T11:28:14.309Z,26.39
2017-10-17T11:29:14.289Z,26.64
2017-10-17T11:30:14.292Z,26.32
2017-10-17T11:31:14.238Z,26.21
2017-10-17T11:32:14.222Z,26.22
2017-10-17T11:33:14.226Z,26.29
2017-10-17T11:34:14.207Z,26.17
2017-10-17T11:35:14.181Z,26.02
2017-10-17T11:36:14.148Z,25.82
2017-10-17T11:37:14.126Z,25.72
2017-10-17T11:38:14.109Z,26.27
2017-10-17T11:39:14.117Z,26.08
2017-10-17T11:40:14.066Z,25.99
2017-10-17T11:41:14.037Z,26.24
2017-10-17T11:42:14.028Z,26.20
2017-10-17T11:43:14.021Z,26.06
2017-10-17T11:44:13.989Z,26.08
2017-10-17T11:45:13.976Z,26.04
2017-10-17T11:46:13.944Z,26.06
2017-10-17T11:47:13.934Z,26.08
2017-10-17T11:48:13.932Z,26.58
2017-10-17T11:49:13.906Z,26.31
2017-10-17T11:50:13.870Z,26.25
2017-10-17T11:51:13.861Z,26.02
2017-10-17T11:52:13.843Z,25.75
2017-10-17T11:53:13.830Z,26.15
2017-10-17T11:54:13.787Z,26.31
2017-10-17T11:55:13.773Z,26.57
2017-10-17T11:56:13.755Z,26.62
2017-10-17T11:57:13.732Z,26.69
2017-10-17T11:58:13.711Z,26.64
2017-10-17T11:59:13.716Z,26.73
2017-10-17T12:00:13.685Z,26.54
2017-10-17T12:01:13.682Z,26.08
2017-10-17T12:02:13.659Z,25.84
2017-10-17T12:03:13.622Z,25.57
2017-10-17T12:04:13.634Z,25.61
2017-10-17T12:05:13.588Z,25.91
2017-10-17T12:06:13.570Z,25.72
2017-10-17T12:07:13.562Z,25.87
2017-10-17T12:08:13.523Z,25.50
2017-10-17T12:09:13.511Z,25.80
2017-10-17T12:10:13.501Z,26.04
2017-10-17T12:11:13.472Z,25.98
2017-10-17T12:12:13.442Z,25.99
2017-10-17T12:13:13.432Z,25.89
2017-10-17T12:14:13.445Z,25.75
2017-10-17T12:15:13.393Z,25.77
2017-10-17T12:16:13.388Z,25.68
2017-10-17T12:17:13.366Z,25.37
2017-10-17T12:18:13.335Z,25.43
2017-10-17T12:19:13.310Z,25.32
2017-10-17T12:20:13.326Z,25.25
2017-10-17T12:21:13.283Z,25.47
2017-10-17T12:22:13.273Z,25.19
2017-10-17T12:23:13.257Z,24.94
2017-10-17T12:24:13.207Z,24.85
2017-10-17T12:25:13.182Z,24.77
2017-10-17T12:26:13.167Z,24.91
2017-10-17T12:27:13.164Z,25.19
2017-10-17T12:28:13.143Z,24.98
2017-10-17T12:29:13.125Z,25.00
2017-10-17T12:30:13.121Z,25.28
2017-10-17T12:31:13.098Z,25.27
2017-10-17T12:32:13.069Z,25.10
2017-10-17T12:33:13.063Z,25.20
2017-10-17T12:34:13.036Z,25.16
2017-10-17T12:35:12.999Z,24.92
2017-10-17T12:36:12.973Z,24.94
2017-10-17T12:37:12.955Z,25.00
2017-10-17T12:38:12.947Z,25.24
2017-10-17T12:39:12.918Z,24.95
2017-10-17T12:40:12.912Z,24.82
2017-10-17T12:41:12.885Z,24.85
2017-10-17T12:42:12.846Z,24.87
2017-10-17T12:43:12.866Z,24.54
2017-10-17T12:44:12.838Z,24.54
2017-10-17T12:45:12.790Z,24.53
2017-10-17T12:46:12.752Z,24.61
2017-10-17T12:47:12.768Z,24.54
2017-10-17T12:48:12.795Z,24.95
2017-10-17T12:49:12.762Z,24.45
2017-10-17T12:50:12.682Z,24.47
2017-10-17T12:51:12.664Z,24.49
2017-10-17T12:52:12.666Z,24.44
2017-10-17T12:53:12.646Z,24.29
2017-10-17T12:54:12.608Z,24.19
2017-10-17T12:55:12.603Z,24.22
2017-10-17T12:56:12.559Z,24.26
2017-10-17T12:57:12.543Z,24.23
2017-10-17T12:58:12.520Z,24.27
2017-10-17T12:59:12.492Z,24.24
2017-10-17T13:00:12.471Z,24.07
2017-10-17T13:01:12.450Z,24.26
2017-10-17T13:02:12.455Z,24.35
2017-10-17T13:03:12.463Z,24.69
2017-10-17T13:04:12.403Z,24.60
2017-10-17T13:05:12.392Z,24.14
2017-10-17T13:06:12.351Z,24.44